Time;durP1;ratioP1;P1;durP2;ratioP2;P2;SDS_P1;SDS_P2;PMS_P1;PMS_P2;Temp;Humidity;BMP_temperature;BMP_pressure;BME280_temperature;BME280_humidity;BME280_pressure;Samples;Min_cycle;Max_cycle;Signal;HPM_P1;HPM_P2
2021/03/25 00:00:31;;;;;;;22.40;17.20;;;;;;;19.02;51.32;102078.88;5053598;28;20025;-72
2021/03/25 00:02:58;;;;;;;22.50;18.58;;;;;;;18.86;51.31;102054.19;5049243;28;20119;-72
2021/03/25 00:05:26;;;;;;;19.23;16.85;;;;;;;19.01;51.32;102074.50;5056954;28;20051;-72
2021/03/25 00:07:52;;;;;;;20.90;18.08;;;;;;;18.97;51.21;102062.19;5062199;28;21867;-73
2021/03/25 00:10:21;;;;;;;21.88;17.70;;;;;;;18.92;51.41;102049.06;5059814;28;20617;-73
2021/03/25 00:12:47;;;;;;;20.90;17.80;;;;;;;19.00;51.36;102066.59;5058788;28;20035;-73
2021/03/25 00:15:13;;;;;;;20.60;16.85;;;;;;;18.94;51.23;102051.69;5060020;28;20403;-73
2021/03/25 00:17:39;;;;;;;19.55;17.45;;;;;;;18.99;51.26;102070.06;5049380;28;20083;-72
2021/03/25 00:20:09;;;;;;;17.73;15.85;;;;;;;19.00;51.19;102069.22;5054709;28;20048;-72
2021/03/25 00:22:35;;;;;;;20.05;17.35;;;;;;;18.97;51.18;102061.31;5056189;28;20478;-73
2021/03/25 00:25:00;;;;;;;17.63;15.80;;;;;;;18.91;51.41;102046.41;5048546;28;20040;-73
2021/03/25 00:27:26;;;;;;;20.63;16.73;;;;;;;18.97;51.31;102062.19;5069510;28;20483;-72
2021/03/25 00:29:51;;;;;;;18.50;15.90;;;;;;;18.98;51.22;102063.06;5058022;28;20378;-73
2021/03/25 00:32:17;;;;;;;18.73;16.70;;;;;;;18.90;51.32;102045.53;5052822;28;20521;-72
2021/03/25 00:34:42;;;;;;;17.80;15.90;;;;;;;18.98;50.87;102060.44;5051483;28;20036;-72
2021/03/25 00:37:07;;;;;;;18.23;16.15;;;;;;;18.91;51.15;102047.28;5036916;28;20090;-73
2021/03/25 00:39:33;;;;;;;18.73;16.63;;;;;;;18.88;51.26;102033.25;5065681;28;20024;-73
2021/03/25 00:41:58;;;;;;;21.75;17.67;;;;;;;18.95;51.16;102047.34;5039102;28;20032;-72
2021/03/25 00:44:24;;;;;;;19.27;16.42;;;;;;;18.95;51.27;102050.84;5061191;28;20029;-72
2021/03/25 00:46:49;;;;;;;18.42;16.52;;;;;;;18.87;51.18;102035.00;5055639;28;20028;-72
2021/03/25 00:49:14;;;;;;;19.58;16.75;;;;;;;18.88;51.25;102036.75;5069586;28;20487;-72
2021/03/25 00:51:40;;;;;;;19.90;16.33;;;;;;;18.87;51.17;102037.63;5052724;28;20390;-72
2021/03/25 00:54:05;;;;;;;18.20;15.77;;;;;;;18.92;51.22;102041.19;5053907;28;20382;-72
2021/03/25 00:56:31;;;;;;;20.75;16.83;;;;;;;18.92;51.03;102043.81;5057816;28;20047;-73
2021/03/25 00:58:56;;;;;;;17.33;15.52;;;;;;;18.93;51.23;102036.81;5076153;28;20033;-72
2021/03/25 01:01:23;;;;;;;19.23;16.90;;;;;;;18.93;51.18;102047.31;5076570;28;20036;-72
2021/03/25 01:03:49;;;;;;;19.25;16.13;;;;;;;18.87;51.07;102040.22;5052570;28;20483;-72
2021/03/25 01:06:14;;;;;;;19.13;17.10;;;;;;;18.84;51.04;102034.94;5056955;28;20033;-72
2021/03/25 01:08:39;;;;;;;20.23;17.63;;;;;;;18.91;51.22;102041.16;5037574;28;20517;-72
2021/03/25 01:11:15;;;;;;;18.98;14.57;;;;;;;18.90;51.25;102034.16;5062590;28;20382;-73
2021/03/25 01:13:47;;;;;;;18.27;16.38;;;;;;;18.83;51.14;102024.44;5076215;28;20032;-72
2021/03/25 01:16:35;;;;;;;18.33;16.42;;;;;;;18.84;51.40;102020.97;5030554;28;20036;-73
2021/03/25 01:19:08;;;;;;;18.60;15.35;;;;;;;18.86;51.27;102024.50;5034436;28;20029;-72
2021/03/25 01:21:34;;;;;;;19.42;16.33;;;;;;;18.82;51.15;102009.59;5017206;28;20044;-73
2021/03/25 01:23:59;;;;;;;17.67;15.60;;;;;;;18.84;51.10;102019.22;5017259;28;20435;-72
2021/03/25 01:26:25;;;;;;;17.38;15.02;;;;;;;18.79;51.08;102007.81;5019638;28;22359;-73
2021/03/25 01:28:50;;;;;;;16.17;14.27;;;;;;;18.89;50.99;102021.91;5003121;28;20049;-72
2021/03/25 01:31:16;;;;;;;16.83;15.18;;;;;;;18.83;51.17;102014.84;5047767;28;20115;-73
2021/03/25 01:33:41;;;;;;;17.83;14.50;;;;;;;18.82;51.02;102018.34;5020694;28;20056;-72
2021/03/25 01:36:07;;;;;;;18.55;15.60;;;;;;;18.84;51.08;102019.22;5006526;28;20040;-72
2021/03/25 01:38:32;;;;;;;16.52;14.85;;;;;;;18.86;51.10;102027.09;5023361;28;20439;-73
2021/03/25 01:41:00;;;;;;;16.33;14.63;;;;;;;18.79;51.04;102015.69;5010285;28;20480;-72
2021/03/25 01:43:32;;;;;;;15.65;13.95;;;;;;;18.80;51.18;102013.94;5023670;28;20040;-72
2021/03/25 01:45:57;;;;;;;18.10;15.25;;;;;;;18.85;51.12;102026.22;5015321;28;20056;-73
2021/03/25 01:48:27;;;;;;;16.63;14.73;;;;;;;18.82;51.08;102017.47;5030718;28;20061;-72
2021/03/25 01:50:57;;;;;;;18.65;15.77;;;;;;;18.73;51.21;102007.72;5016605;28;20120;-72
2021/03/25 01:53:41;;;;;;;16.83;14.52;;;;;;;18.79;50.87;102023.53;5026697;28;20490;-73
2021/03/25 01:56:26;;;;;;;14.38;12.88;;;;;;;18.84;50.96;102026.22;5042390;28;20033;-73
2021/03/25 01:59:06;;;;;;;17.10;14.40;;;;;;;18.83;50.98;102021.81;5046302;28;20033;-72
2021/03/25 02:01:42;;;;;;;15.10;13.40;;;;;;;18.77;50.75;102014.78;5035749;28;20545;-72
2021/03/25 02:04:20;;;;;;;16.67;14.52;;;;;;;18.78;50.94;102013.03;5040097;28;20460;-72
2021/03/25 02:06:57;;;;;;;15.70;13.82;;;;;;;18.83;50.94;102021.81;5051844;28;20021;-72
2021/03/25 02:09:58;;;;;;;16.13;13.75;;;;;;;18.78;50.91;102016.53;5026276;28;20113;-72
2021/03/25 02:12:42;;;;;;;16.95;15.13;;;;;;;18.84;50.81;102020.97;5029706;28;20037;-73
2021/03/25 02:15:25;;;;;;;17.60;15.77;;;;;;;18.82;50.95;102018.34;5040779;28;20068;-72
2021/03/25 02:18:12;;;;;;;15.57;13.43;;;;;;;18.82;51.04;102012.22;5017760;28;20245;-72
2021/03/25 02:20:56;;;;;;;16.15;14.18;;;;;;;18.82;51.04;102009.59;5031807;28;20035;-75
2021/03/25 02:23:59;;;;;;;15.10;13.25;;;;;;;18.80;51.09;102012.22;5031707;28;20052;-76
2021/03/25 02:26:31;;;;;;;15.68;14.02;;;;;;;18.77;51.20;102009.53;5054992;28;20096;-76
2021/03/25 02:29:08;;;;;;;15.13;13.03;;;;;;;18.78;50.96;102003.44;5044812;28;20028;-76
2021/03/25 02:31:37;;;;;;;15.63;12.93;;;;;;;18.80;50.86;102006.97;5048364;28;20037;-77
2021/03/25 02:34:08;;;;;;;16.48;14.60;;;;;;;18.73;50.93;101997.25;5021191;28;20494;-77
2021/03/25 02:36:44;;;;;;;16.33;13.73;;;;;;;18.77;51.07;102004.31;5035161;28;20034;-77
2021/03/25 02:39:16;;;;;;;18.08;13.88;;;;;;;18.79;51.01;102013.06;5029306;28;20029;-77
2021/03/25 02:41:46;;;;;;;15.05;13.10;;;;;;;18.71;51.04;102000.72;5034729;28;20140;-77
2021/03/25 02:44:33;;;;;;;16.27;14.55;;;;;;;18.76;50.85;102007.78;5033962;28;20064;-76
2021/03/25 02:47:10;;;;;;;15.75;14.02;;;;;;;18.76;51.08;101999.03;5016389;28;20134;-76
2021/03/25 02:49:58;;;;;;;15.80;13.35;;;;;;;18.74;50.81;101990.28;5033400;28;20391;-77
2021/03/25 02:52:24;;;;;;;14.73;12.82;;;;;;;18.77;50.95;101999.06;5030752;28;20105;-77
2021/03/25 02:54:51;;;;;;;14.18;12.75;;;;;;;18.76;50.83;102005.16;5034225;28;20053;-77
2021/03/25 02:57:28;;;;;;;14.20;12.77;;;;;;;18.71;50.92;102001.59;5015256;28;20029;-77
2021/03/25 03:00:00;;;;;;;16.33;13.25;;;;;;;18.77;50.81;102000.81;5028876;28;20033;-77
2021/03/25 03:02:36;;;;;;;14.60;13.10;;;;;;;18.75;50.95;101999.91;5021332;28;20468;-77
2021/03/25 03:05:07;;;;;;;14.02;12.43;;;;;;;18.70;50.90;101997.22;5019989;28;20025;-77
2021/03/25 03:07:43;;;;;;;13.93;12.48;;;;;;;18.75;50.89;101999.91;5043085;28;20079;-77
2021/03/25 03:10:14;;;;;;;15.00;13.43;;;;;;;18.74;51.14;102001.63;5047942;28;20115;-77
2021/03/25 03:12:45;;;;;;;14.35;12.82;;;;;;;18.68;50.81;102001.56;5026457;28;20041;-77
2021/03/25 03:15:38;;;;;;;12.85;11.45;;;;;;;18.72;50.72;102005.97;5047759;28;20095;-77
2021/03/25 03:18:17;;;;;;;15.05;12.35;;;;;;;18.72;50.71;102003.34;5064855;28;20028;-77
2021/03/25 03:20:52;;;;;;;16.23;13.65;;;;;;;18.68;50.86;101998.97;5060933;28;20094;-77
2021/03/25 03:23:17;;;;;;;14.07;12.60;;;;;;;18.69;51.03;102000.72;5047618;28;20025;-77
2021/03/25 03:25:43;;;;;;;14.20;12.70;;;;;;;18.69;50.74;101997.22;5052319;28;20131;-77
2021/03/25 03:28:19;;;;;;;14.95;13.23;;;;;;;18.68;50.88;101996.34;5040916;28;20032;-77
2021/03/25 03:30:57;;;;;;;14.73;12.73;;;;;;;18.73;50.95;102012.09;5049381;28;20033;-77
2021/03/25 03:33:32;;;;;;;14.55;12.88;;;;;;;18.72;50.96;102007.72;5047906;28;20035;-77
2021/03/25 03:36:11;;;;;;;15.10;13.50;;;;;;;18.63;50.83;101990.16;5058045;28;20049;-77
2021/03/25 03:38:41;;;;;;;13.95;12.50;;;;;;;18.59;51.01;101979.59;5045694;28;20028;-77
2021/03/25 03:41:08;;;;;;;13.57;11.77;;;;;;;18.67;50.82;101988.44;5052261;28;20499;-77
2021/03/25 03:43:36;;;;;;;16.10;13.73;;;;;;;18.69;50.90;101995.47;5053922;28;20021;-77
2021/03/25 03:46:09;;;;;;;14.15;12.18;;;;;;;18.69;51.17;101991.97;5065215;28;20032;-77
2021/03/25 03:48:50;;;;;;;13.95;12.40;;;;;;;18.67;50.98;101986.72;5060692;28;20024;-72
2021/03/25 03:51:42;;;;;;;14.70;13.05;;;;;;;18.70;50.88;101997.22;5080465;28;20032;-77
2021/03/25 03:54:08;;;;;;;14.68;13.10;;;;;;;18.66;50.89;101984.06;5048656;28;20060;-77
2021/03/25 03:57:01;;;;;;;13.48;11.98;;;;;;;18.70;50.80;101996.31;5053353;28;20106;-77
2021/03/25 03:59:52;;;;;;;15.23;12.30;;;;;;;18.69;50.84;101997.22;5071410;28;20024;-73
2021/03/25 04:02:35;;;;;;;13.63;11.05;;;;;;;18.66;50.79;101987.56;5054088;28;20549;-76
2021/03/25 04:05:09;;;;;;;16.80;13.90;;;;;;;18.67;50.88;101991.94;5064972;28;20079;-76
2021/03/25 04:07:39;;;;;;;18.50;13.07;;;;;;;18.63;50.90;101986.66;5063980;28;20403;-77
2021/03/25 04:10:12;;;;;;;15.55;12.85;;;;;;;18.64;51.03;101986.66;5074488;28;20060;-77
2021/03/25 04:12:42;;;;;;;13.55;11.43;;;;;;;18.64;50.96;101986.66;5052774;28;20025;-77
2021/03/25 04:15:18;;;;;;;14.15;12.10;;;;;;;18.67;50.87;101993.69;5058070;28;20123;-77
2021/03/25 04:17:50;;;;;;;14.48;12.93;;;;;;;18.66;50.88;101991.94;5053644;28;20049;-76
2021/03/25 04:20:22;;;;;;;15.30;13.13;;;;;;;18.64;50.87;101984.03;5049448;28;20036;-76
2021/03/25 04:22:53;;;;;;;13.68;12.10;;;;;;;18.65;50.95;101979.69;5050905;28;20044;-76
2021/03/25 04:25:27;;;;;;;14.35;11.88;;;;;;;18.64;50.87;101972.69;5049824;28;20037;-77
2021/03/25 04:28:15;;;;;;;13.68;12.27;;;;;;;18.65;50.85;101975.31;5050602;28;20075;-77
2021/03/25 04:30:47;;;;;;;12.15;10.95;;;;;;;18.65;51.20;101977.94;5034182;28;20033;-76
2021/03/25 04:33:16;;;;;;;14.57;13.00;;;;;;;18.66;50.99;101977.09;5049610;28;20421;-76
2021/03/25 04:35:44;;;;;;;14.38;12.18;;;;;;;18.57;50.88;101954.22;5050560;28;20021;-76
2021/03/25 04:38:19;;;;;;;14.00;12.15;;;;;;;18.65;50.89;101969.22;5054765;28;20032;-76
2021/03/25 04:40:44;;;;;;;12.98;11.68;;;;;;;18.61;50.89;101964.78;5058337;28;20021;-75
2021/03/25 04:43:15;;;;;;;13.45;11.88;;;;;;;18.62;50.91;101970.03;5061563;28;20176;-76
2021/03/25 04:45:56;;;;;;;12.63;11.07;;;;;;;18.63;50.98;101971.81;5056904;28;20029;-77
2021/03/25 04:48:25;;;;;;;13.70;12.30;;;;;;;18.61;50.85;101977.88;5060847;28;20024;-76
2021/03/25 04:51:05;;;;;;;15.13;13.40;;;;;;;18.60;50.87;101960.41;5053734;28;20051;-76
2021/03/25 04:53:39;;;;;;;13.82;12.27;;;;;;;18.61;50.92;101978.75;5056999;28;20493;-76
2021/03/25 04:56:09;;;;;;;13.50;12.02;;;;;;;18.62;50.92;101971.78;5065508;28;20064;-76
2021/03/25 04:58:42;;;;;;;13.43;11.80;;;;;;;18.62;51.04;101972.66;5065806;28;20029;-76
2021/03/25 05:01:29;;;;;;;15.47;13.83;;;;;;;18.62;50.92;101979.63;5056311;28;20446;-76
2021/03/25 05:04:01;;;;;;;12.35;11.07;;;;;;;18.62;50.98;101972.66;5063701;28;20478;-76
2021/03/25 05:06:52;;;;;;;15.65;11.30;;;;;;;18.55;51.01;101950.72;5061490;28;20107;-76
2021/03/25 05:09:20;;;;;;;13.60;11.25;;;;;;;18.57;50.87;101956.84;5067733;28;20067;-73
2021/03/25 05:11:46;;;;;;;13.93;12.52;;;;;;;18.61;50.93;101967.41;5054222;28;20035;-72
2021/03/25 05:14:21;;;;;;;13.73;12.32;;;;;;;18.58;51.14;101960.38;5049080;28;20738;-72
2021/03/25 05:17:03;;;;;;;13.57;12.13;;;;;;;18.59;50.96;101964.75;5037656;28;20051;-72
2021/03/25 05:19:53;;;;;;;14.40;12.50;;;;;;;18.57;51.03;101956.84;5046800;28;20025;-72
2021/03/25 05:22:50;;;;;;;13.70;12.20;;;;;;;18.55;51.09;101952.47;5032030;28;20033;-73
2021/03/25 05:25:27;;;;;;;13.18;11.77;;;;;;;18.54;51.15;101948.09;5035280;28;20029;-72
2021/03/25 05:27:59;;;;;;;13.90;11.93;;;;;;;18.52;51.08;101944.56;5022263;28;20119;-72
2021/03/25 05:30:35;;;;;;;13.77;11.63;;;;;;;18.58;51.00;101944.66;5042815;28;20037;-72
2021/03/25 05:33:05;;;;;;;16.13;12.13;;;;;;;18.51;51.35;101935.81;5052248;28;20028;-73
2021/03/25 05:35:39;;;;;;;12.48;10.90;;;;;;;18.56;51.29;101949.84;5032201;28;20025;-75
2021/03/25 05:38:05;;;;;;;13.73;12.32;;;;;;;18.61;51.28;101946.44;5016597;28;20117;-78
2021/03/25 05:40:45;;;;;;;12.48;11.18;;;;;;;18.66;51.12;101937.78;5028553;28;20112;-77
2021/03/25 05:43:17;;;;;;;13.65;11.90;;;;;;;18.83;50.77;101948.44;5031656;28;20025;-76
2021/03/25 05:46:01;;;;;;;12.02;10.80;;;;;;;18.82;50.89;101947.59;5020448;28;20025;-77
2021/03/25 05:48:34;;;;;;;11.88;10.63;;;;;;;18.78;50.80;101940.53;5020226;28;20444;-77
2021/03/25 05:51:22;;;;;;;12.05;10.73;;;;;;;18.89;50.58;101933.69;5018410;28;20128;-77
2021/03/25 05:54:01;;;;;;;12.55;11.25;;;;;;;18.91;50.58;101936.31;5006924;28;20036;-76
2021/03/25 05:56:38;;;;;;;12.80;10.85;;;;;;;18.89;50.73;101957.25;5035447;28;20439;-77
2021/03/25 05:59:15;;;;;;;12.18;9.82;;;;;;;19.00;50.53;101977.47;5033230;28;20467;-77
2021/03/25 06:02:00;;;;;;;11.52;10.30;;;;;;;19.07;50.42;101985.44;5034873;28;20088;-76
2021/03/25 06:04:28;;;;;;;12.75;10.75;;;;;;;19.04;50.77;101981.88;5032449;28;20067;-75
2021/03/25 06:07:38;;;;;;;15.32;10.85;;;;;;;19.06;50.81;101988.91;5032888;28;20029;-76
2021/03/25 06:10:28;;;;;;;13.40;9.25;;;;;;;19.10;50.65;101988.06;5027571;28;20060;-75
2021/03/25 06:13:21;;;;;;;10.18;9.15;;;;;;;19.12;50.42;101978.47;5017698;28;20033;-76
2021/03/25 06:16:11;;;;;;;10.18;9.15;;;;;;;19.10;50.46;101966.22;5035957;28;20127;-75
2021/03/25 06:18:59;;;;;;;13.45;9.90;;;;;;;19.19;50.66;101982.06;5030059;28;20099;-75
2021/03/25 06:21:39;;;;;;;15.65;9.23;;;;;;;19.13;50.65;101974.13;5021213;28;20084;-77
2021/03/25 06:24:42;;;;;;;11.77;10.35;;;;;;;19.18;50.69;101975.94;5034144;28;20033;-76
2021/03/25 06:27:22;;;;;;;13.25;9.63;;;;;;;19.27;50.62;101970.78;5025546;28;20113;-76
2021/03/25 06:29:51;;;;;;;14.20;9.90;;;;;;;19.27;50.56;101977.75;5016656;28;20103;-77
2021/03/25 06:32:20;;;;;;;11.52;8.93;;;;;;;19.28;50.72;101982.13;5036507;28;20037;-74
2021/03/25 06:34:55;;;;;;;15.43;9.57;;;;;;;19.32;50.62;101980.44;5036662;28;20545;-78
2021/03/25 06:37:37;;;;;;;13.40;10.68;;;;;;;19.37;50.55;101982.22;5018494;28;20152;-74
2021/03/25 06:40:14;;;;;;;17.00;10.55;;;;;;;19.31;50.86;101984.81;5035212;28;20079;-74
2021/03/25 06:42:47;;;;;;;21.20;13.32;;;;;;;19.25;50.49;101969.88;5024932;28;20028;-73
2021/03/25 06:45:30;;;;;;;18.35;12.38;;;;;;;19.38;50.47;101976.09;5032078;28;20029;-72
2021/03/25 06:48:03;;;;;;;16.45;11.80;;;;;;;19.32;50.64;101969.94;5029752;28;20032;-73
2021/03/25 06:50:34;;;;;;;18.10;12.98;;;;;;;19.33;50.76;101975.22;5048800;28;20041;-72
2021/03/25 06:53:31;;;;;;;14.05;10.88;;;;;;;19.44;50.57;101981.44;5043471;28;20025;-73
2021/03/25 06:56:07;;;;;;;14.18;11.48;;;;;;;19.43;50.72;101976.16;5015070;28;20379;-73
2021/03/25 06:58:42;;;;;;;15.70;12.20;;;;;;;19.42;50.86;101985.78;5054261;28;20017;-72
2021/03/25 07:01:25;;;;;;;16.08;11.57;;;;;;;19.48;50.61;101990.19;5035216;28;20111;-73
2021/03/25 07:03:54;;;;;;;16.77;12.43;;;;;;;19.47;50.53;101986.72;5027618;28;20049;-73
2021/03/25 07:06:22;;;;;;;15.50;11.90;;;;;;;19.48;50.79;101988.44;5029034;28;20024;-72
2021/03/25 07:08:48;;;;;;;15.35;12.10;;;;;;;19.49;50.61;101991.97;5031058;28;20036;-73
2021/03/25 07:11:18;;;;;;;17.80;12.50;;;;;;;19.52;50.69;101990.28;5027957;28;20032;-73
2021/03/25 07:13:59;;;;;;;15.68;12.45;;;;;;;19.51;50.67;101988.50;5043362;28;20027;-74
2021/03/25 07:16:27;;;;;;;15.65;12.10;;;;;;;19.50;50.79;101992.00;5033597;28;20036;-76
2021/03/25 07:18:57;;;;;;;17.52;11.63;;;;;;;19.60;50.99;101999.06;5033122;28;20025;-76
2021/03/25 07:21:36;;;;;;;12.57;10.57;;;;;;;19.64;50.95;101997.38;5031273;28;20030;-75
2021/03/25 07:24:26;;;;;;;14.98;11.55;;;;;;;19.56;50.93;102010.44;5017596;28;20025;-75
2021/03/25 07:27:01;;;;;;;15.85;10.98;;;;;;;19.61;51.13;102010.44;5023345;28;20045;-76
2021/03/25 07:29:36;;;;;;;14.45;11.65;;;;;;;19.62;50.85;101997.34;5005227;28;20448;-76
2021/03/25 07:32:04;;;;;;;13.70;11.05;;;;;;;19.62;50.90;102009.59;5015378;28;20559;-76
2021/03/25 07:34:39;;;;;;;14.75;11.52;;;;;;;19.60;51.15;102013.97;5012773;28;20044;-75
2021/03/25 07:37:08;;;;;;;13.90;11.00;;;;;;;19.64;50.85;102010.50;5049273;28;20522;-76
2021/03/25 07:39:38;;;;;;;13.57;10.45;;;;;;;19.67;50.96;102009.63;5017732;28;20030;-76
2021/03/25 07:42:05;;;;;;;11.18;9.85;;;;;;;19.57;51.15;102008.69;5055468;28;20100;-76
2021/03/25 07:44:36;;;;;;;14.68;11.32;;;;;;;19.65;50.95;102020.13;5050250;28;20025;-76
2021/03/25 07:47:23;;;;;;;13.43;11.00;;;;;;;19.69;51.01;102026.28;5050684;28;20391;-76
2021/03/25 07:49:48;;;;;;;13.88;10.45;;;;;;;19.65;50.92;102034.97;5039707;28;20112;-75
2021/03/25 07:52:34;;;;;;;13.35;10.27;;;;;;;19.61;51.16;102023.56;5031716;28;20067;-75
2021/03/25 07:55:18;;;;;;;11.93;10.23;;;;;;;19.72;50.71;102035.06;5048245;28;20033;-76
2021/03/25 07:57:45;;;;;;;13.25;10.45;;;;;;;19.67;50.97;102036.75;5019226;28;20035;-76
2021/03/25 08:00:23;;;;;;;11.38;9.60;;;;;;;19.57;51.06;102025.31;5044048;28;20031;-74
2021/03/25 08:03:12;;;;;;;11.98;9.88;;;;;;;19.70;50.60;102033.28;5026491;28;20068;-73
2021/03/25 08:05:37;;;;;;;10.65;9.43;;;;;;;19.70;50.75;102039.44;5039456;28;20116;-72
2021/03/25 08:08:29;;;;;;;15.30;11.25;;;;;;;19.62;50.90;102026.22;5012050;28;20080;-76
2021/03/25 08:11:12;;;;;;;10.50;8.40;;;;;;;19.74;50.80;102042.94;5032208;28;20036;-72
2021/03/25 08:13:48;;;;;;;12.50;9.65;;;;;;;19.73;50.70;102035.94;5025480;28;20026;-76
2021/03/25 08:16:16;;;;;;;11.35;9.25;;;;;;;19.67;50.95;102026.25;5047734;28;20056;-72
2021/03/25 08:19:10;;;;;;;12.60;10.43;;;;;;;19.63;51.10;102038.47;5046294;28;20111;-72
2021/03/25 08:21:42;;;;;;;10.43;8.98;;;;;;;19.58;51.13;102037.56;5055241;28;22136;-72
2021/03/25 08:24:59;;;;;;;10.43;8.77;;;;;;;19.56;51.22;102043.66;5058456;28;20079;-76
2021/03/25 08:27:54;;;;;;;11.05;9.65;;;;;;;19.53;51.28;102043.63;5041331;28;20086;-76
2021/03/25 08:30:38;;;;;;;12.02;8.07;;;;;;;19.49;51.35;102044.44;5072218;28;20580;-75
2021/03/25 08:33:24;;;;;;;;;;;;;;;19.47;51.55;102046.16;5053894;28;20037;-76
2021/03/25 08:36:26;;;;;;;12.65;9.55;;;;;;;19.42;51.39;102037.34;5056872;28;19912;-76
2021/03/25 08:39:29;;;;;;;10.85;9.05;;;;;;;19.43;51.46;102034.75;5073153;28;20111;-73
2021/03/25 08:42:04;;;;;;;12.90;9.43;;;;;;;19.41;51.71;102035.59;5063470;28;20036;-72
2021/03/25 08:44:35;;;;;;;10.70;8.95;;;;;;;19.38;51.72;102033.81;5073586;28;20078;-77
2021/03/25 08:47:12;;;;;;;10.73;8.82;;;;;;;19.41;51.84;102040.84;5059363;28;20471;-77
2021/03/25 08:49:56;;;;;;;11.73;9.02;;;;;;;19.37;52.05;102042.56;5055555;28;20471;-72
2021/03/25 08:52:25;;;;;;;10.82;8.90;;;;;;;19.34;51.74;102033.78;5062155;28;20033;-75
2021/03/25 08:55:02;;;;;;;11.10;9.10;;;;;;;19.36;51.83;102042.53;5053942;28;20028;-74
2021/03/25 08:57:36;;;;;;;13.95;10.30;;;;;;;19.29;51.93;102028.50;5057369;28;20028;-74
2021/03/25 09:00:15;;;;;;;10.95;8.80;;;;;;;19.31;51.79;102037.25;5055999;28;20017;-72
2021/03/25 09:02:51;;;;;;;12.25;9.50;;;;;;;19.27;51.85;102040.69;5057136;28;20029;-72
2021/03/25 09:05:33;;;;;;;9.50;7.65;;;;;;;19.22;51.90;102024.03;5055823;28;20025;-72
2021/03/25 09:08:01;;;;;;;9.70;8.50;;;;;;;19.25;52.02;102031.94;5058212;28;20029;-72
2021/03/25 09:10:40;;;;;;;11.32;7.78;;;;;;;19.25;51.90;102039.81;5056787;28;20033;-75
2021/03/25 09:13:19;;;;;;;11.23;7.78;;;;;;;19.25;51.95;102037.19;5042523;28;20021;-72
2021/03/25 09:15:45;;;;;;;11.77;7.68;;;;;;;19.23;52.08;102033.66;5053190;28;20057;-72
2021/03/25 09:18:16;;;;;;;9.32;7.75;;;;;;;19.24;51.80;102038.91;5044264;28;20033;-72
2021/03/25 09:20:47;;;;;;;11.52;8.57;;;;;;;19.24;51.90;102038.03;5051810;28;20459;-75
2021/03/25 09:23:35;;;;;;;9.00;7.75;;;;;;;19.19;51.87;102035.38;5049849;28;20033;-72
2021/03/25 09:26:11;;;;;;;9.85;7.90;;;;;;;19.17;51.65;102028.34;5044911;28;20033;-72
2021/03/25 09:29:06;;;;;;;10.43;8.45;;;;;;;19.21;51.78;102030.16;5046229;28;20394;-72
2021/03/25 09:31:38;;;;;;;9.82;7.97;;;;;;;19.16;51.78;102030.09;5045860;28;20395;-75
2021/03/25 09:34:09;;;;;;;9.77;8.25;;;;;;;19.18;51.82;102037.97;5054683;28;20025;-75
2021/03/25 09:36:35;;;;;;;10.35;9.07;;;;;;;19.22;51.85;102031.88;5050374;28;20021;-72
2021/03/25 09:39:00;;;;;;;10.85;9.45;;;;;;;19.30;51.56;102030.25;5043171;28;20033;-75
2021/03/25 09:41:25;;;;;;;11.35;8.25;;;;;;;19.36;51.40;102039.91;5051260;28;20471;-72
2021/03/25 09:44:11;;;;;;;9.18;7.30;;;;;;;19.36;51.39;102034.66;5048826;28;20041;-75
2021/03/25 09:46:55;;;;;;;9.23;7.78;;;;;;;19.43;51.31;102033.88;5039950;28;20483;-75
2021/03/25 09:49:28;;;;;;;9.02;7.32;;;;;;;19.48;51.07;102038.28;5050529;28;20079;-75
2021/03/25 09:52:06;;;;;;;9.25;7.47;;;;;;;19.49;51.15;102028.72;5051244;28;20063;-72
2021/03/25 09:54:33;;;;;;;9.57;7.13;;;;;;;19.44;50.95;102009.41;5049169;28;20082;-74
2021/03/25 09:57:34;;;;;;;10.25;7.00;;;;;;;19.63;50.91;102029.72;5065096;28;20033;-71
2021/03/25 10:00:14;;;;;;;8.35;7.25;;;;;;;19.65;50.82;102025.38;5037229;28;20017;-72
2021/03/25 10:02:48;;;;;;;8.90;6.50;;;;;;;19.61;51.08;102026.19;5060139;28;20475;-72
2021/03/25 10:05:19;;;;;;;7.78;6.97;;;;;;;19.62;50.96;102028.84;5050361;28;20044;-75
2021/03/25 10:07:45;;;;;;;7.53;6.72;;;;;;;19.68;50.95;102032.41;5050503;28;20390;-76
2021/03/25 10:10:23;;;;;;;7.28;6.22;;;;;;;19.65;50.88;102032.38;5055200;28;20033;-75
2021/03/25 10:12:52;;;;;;;9.13;7.53;;;;;;;19.64;50.95;102039.34;5051872;28;20075;-75
2021/03/25 10:15:33;;;;;;;8.60;6.85;;;;;;;19.71;50.77;102035.06;5032371;28;20132;-72
2021/03/25 10:18:08;;;;;;;6.30;5.70;;;;;;;19.70;51.01;102039.44;5013208;28;20053;-72
2021/03/25 10:21:03;;;;;;;6.43;5.40;;;;;;;19.67;51.01;102047.25;5035371;28;20025;-72
2021/03/25 10:23:36;;;;;;;7.40;5.47;;;;;;;19.71;50.92;102041.19;5017702;28;20080;-75
2021/03/25 10:26:01;;;;;;;9.07;6.87;;;;;;;19.75;50.85;102044.69;5013023;28;20029;-72
2021/03/25 10:28:29;;;;;;;7.88;5.90;;;;;;;19.72;50.97;102047.31;5014826;28;20529;-72
2021/03/25 10:31:07;;;;;;;7.93;6.50;;;;;;;19.74;50.92;102045.56;5024196;28;20476;-76
2021/03/25 10:33:35;;;;;;;5.95;5.35;;;;;;;19.76;50.65;102039.47;5004746;28;20431;-75
2021/03/25 10:36:08;;;;;;;6.32;5.70;;;;;;;19.74;50.84;102045.56;5012382;28;20036;-76
2021/03/25 10:38:44;;;;;;;6.97;5.90;;;;;;;19.76;50.82;102043.81;5017197;28;20029;-75
2021/03/25 10:41:21;;;;;;;5.72;5.18;;;;;;;19.78;50.61;102039.47;5024525;28;20152;-75
2021/03/25 10:43:49;;;;;;;5.90;4.95;;;;;;;19.74;50.84;102027.19;5034369;28;20052;-75
2021/03/25 10:46:41;;;;;;;6.28;5.53;;;;;;;19.78;50.96;102044.72;5029952;28;20022;-72
2021/03/25 10:49:13;;;;;;;6.10;5.18;;;;;;;19.74;50.90;102040.31;5012333;28;20095;-75
2021/03/25 10:51:42;;;;;;;5.65;5.03;;;;;;;19.67;50.97;102035.88;5028722;28;20030;-75
2021/03/25 10:54:37;;;;;;;7.10;5.43;;;;;;;19.68;50.95;102041.16;5027476;28;20022;-72
2021/03/25 10:57:22;;;;;;;6.38;5.15;;;;;;;19.60;51.08;102027.94;5024070;28;20372;-72
2021/03/25 10:59:55;;;;;;;6.88;5.28;;;;;;;19.64;51.10;102039.34;5005266;28;20040;-72
2021/03/25 11:02:26;;;;;;;6.68;5.43;;;;;;;19.62;51.12;102047.22;5014836;28;20076;-72
2021/03/25 11:05:16;;;;;;;5.88;4.93;;;;;;;19.61;51.11;102040.19;5013209;28;20360;-72
2021/03/25 11:07:51;;;;;;;7.03;5.07;;;;;;;19.56;51.17;102036.66;5028759;28;20025;-72
2021/03/25 11:10:22;;;;;;;8.93;5.72;;;;;;;19.60;50.94;102037.59;5016180;28;20030;-72
2021/03/25 11:13:00;;;;;;;8.27;6.03;;;;;;;19.54;51.01;102035.78;5005770;28;20389;-72
2021/03/25 11:15:32;;;;;;;5.75;5.05;;;;;;;19.52;51.23;102039.25;5049101;28;20095;-72
2021/03/25 11:18:00;;;;;;;5.78;4.72;;;;;;;19.44;51.16;102026.03;5041574;28;20026;-72
2021/03/25 11:20:28;;;;;;;6.25;5.40;;;;;;;19.55;51.20;102045.41;5055039;28;20078;-72
2021/03/25 11:22:56;;;;;;;7.13;5.72;;;;;;;19.52;51.22;102041.88;5045702;28;20032;-72
2021/03/25 11:25:33;;;;;;;5.65;4.65;;;;;;;19.42;51.00;102022.50;5053962;28;20382;-75
2021/03/25 11:28:07;;;;;;;5.85;4.55;;;;;;;19.47;51.17;102036.56;5039296;28;20061;-76
2021/03/25 11:30:33;;;;;;;6.22;4.95;;;;;;;19.53;51.24;102041.88;5041268;28;20044;-74
2021/03/25 11:32:58;;;;;;;5.35;4.60;;;;;;;19.52;51.16;102039.25;5069631;28;20519;-75
2021/03/25 11:35:26;;;;;;;5.00;4.50;;;;;;;19.55;50.93;102042.78;5033892;28;20104;-75
2021/03/25 11:37:53;;;;;;;5.68;5.15;;;;;;;19.56;51.24;102039.28;5053232;28;20524;-72
2021/03/25 11:40:42;;;;;;;7.35;5.03;;;;;;;19.55;50.86;102042.78;5054093;28;20045;-72
2021/03/25 11:43:20;;;;;;;5.70;5.00;;;;;;;19.55;50.96;102032.28;5055106;28;20025;-75
2021/03/25 11:45:46;;;;;;;7.18;5.03;;;;;;;19.56;50.89;102034.03;5037417;28;20360;-75
2021/03/25 11:48:29;;;;;;;6.95;5.55;;;;;;;19.57;51.02;102030.56;5050862;28;20154;-75
2021/03/25 11:50:57;;;;;;;7.75;5.45;;;;;;;19.56;50.99;102035.78;5065924;28;20482;-75